createdAt,value
2016-09-30T00:00:11.410Z,0
2016-09-30T00:01:11.426Z,0
2016-09-30T00:03:11.493Z,0
2016-09-30T00:04:11.611Z,0
2016-09-30T00:05:11.527Z,0
2016-09-30T00:06:11.563Z,0
2016-09-30T00:07:11.585Z,0
2016-09-30T00:08:11.616Z,0
2016-09-30T00:09:11.643Z,0
2016-09-30T00:10:12.167Z,0
2016-09-30T00:11:11.687Z,0
2016-09-30T00:12:11.708Z,0
2016-09-30T00:13:11.726Z,0
2016-09-30T00:14:11.757Z,0
2016-09-30T00:15:11.788Z,0
2016-09-30T00:16:11.813Z,0
2016-09-30T00:17:26.759Z,0
2016-09-30T00:18:26.778Z,0
2016-09-30T00:19:11.884Z,0
2016-09-30T00:20:11.908Z,0
2016-09-30T00:21:11.934Z,0
2016-09-30T00:22:11.959Z,0
2016-09-30T00:23:27.155Z,0
2016-09-30T00:24:12.033Z,0
2016-09-30T00:25:12.043Z,0
2016-09-30T00:26:26.988Z,0
2016-09-30T00:27:12.084Z,0
2016-09-30T00:28:12.113Z,0
2016-09-30T00:29:12.137Z,0
2016-09-30T00:30:27.086Z,0
2016-09-30T00:31:12.188Z,0
2016-09-30T00:32:12.206Z,0
2016-09-30T00:33:27.156Z,0
2016-09-30T00:34:27.195Z,0
2016-09-30T00:35:12.279Z,0
2016-09-30T00:36:12.311Z,0
2016-09-30T00:37:12.338Z,0
2016-09-30T00:38:12.364Z,0
2016-09-30T00:39:12.388Z,0
2016-09-30T00:41:12.434Z,0
2016-09-30T00:42:12.459Z,0
2016-09-30T00:43:12.483Z,0
2016-09-30T00:44:12.508Z,0
2016-09-30T00:45:12.530Z,0
2016-09-30T00:46:12.554Z,0
2016-09-30T00:47:12.640Z,0
2016-09-30T00:48:12.608Z,0
2016-09-30T00:49:27.557Z,0
2016-09-30T00:50:27.578Z,0
2016-09-30T00:51:12.689Z,0
2016-09-30T00:52:12.708Z,0
2016-09-30T00:53:12.731Z,0
2016-09-30T00:54:12.754Z,0
2016-09-30T00:56:12.812Z,0
2016-09-30T00:57:12.829Z,0
2016-09-30T00:58:12.858Z,0
2016-09-30T00:59:12.878Z,0
2016-09-30T01:00:12.903Z,0
2016-09-30T01:01:27.851Z,0
2016-09-30T01:02:13.211Z,0
2016-09-30T01:03:12.980Z,0
2016-09-30T01:04:13.008Z,0
2016-09-30T01:06:13.062Z,0
2016-09-30T01:07:13.083Z,0
2016-09-30T01:08:13.154Z,0
2016-09-30T01:09:13.127Z,0
2016-09-30T01:10:13.196Z,0
2016-09-30T01:11:13.178Z,0
2016-09-30T01:12:13.208Z,0
2016-09-30T01:13:13.278Z,0
2016-09-30T01:14:28.183Z,0
2016-09-30T01:15:13.273Z,0
2016-09-30T01:16:28.226Z,0
2016-09-30T01:17:13.324Z,0
2016-09-30T01:18:13.455Z,0
2016-09-30T01:19:13.386Z,0
2016-09-30T01:20:28.323Z,0
2016-09-30T01:21:13.979Z,0
2016-09-30T01:22:13.449Z,0
2016-09-30T01:23:13.475Z,0
2016-09-30T01:24:13.506Z,0
2016-09-30T01:26:13.798Z,0
2016-09-30T01:28:28.525Z,0
2016-09-30T01:29:28.548Z,0
2016-09-30T01:30:13.903Z,0
2016-09-30T01:31:13.669Z,0
2016-09-30T01:32:13.952Z,0
2016-09-30T01:33:13.721Z,0
2016-09-30T01:34:13.745Z,0
2016-09-30T01:35:13.764Z,0
2016-09-30T01:36:13.807Z,0
2016-09-30T01:37:13.822Z,0
2016-09-30T01:38:13.848Z,0
2016-09-30T01:39:13.878Z,0
2016-09-30T01:40:13.900Z,0
2016-09-30T01:41:13.919Z,0
2016-09-30T01:42:13.939Z,0
2016-09-30T01:43:13.971Z,0
2016-09-30T01:44:28.970Z,0
2016-09-30T01:45:14.028Z,0
2016-09-30T01:46:14.100Z,0
2016-09-30T01:47:14.072Z,0
2016-09-30T01:48:14.191Z,0
2016-09-30T01:49:29.041Z,0
2016-09-30T01:50:14.148Z,0
2016-09-30T01:51:14.171Z,0
2016-09-30T01:52:29.114Z,0
2016-09-30T01:53:14.222Z,0
2016-09-30T01:54:14.244Z,0
2016-09-30T01:56:14.345Z,0
2016-09-30T01:57:14.309Z,0
2016-09-30T01:58:14.342Z,0
2016-09-30T01:59:14.376Z,0
2016-09-30T02:01:14.463Z,0
2016-09-30T02:02:29.366Z,0
2016-09-30T02:03:14.465Z,0
2016-09-30T02:04:29.413Z,0
2016-09-30T02:05:14.516Z,0
2016-09-30T02:06:14.541Z,0
2016-09-30T02:07:14.569Z,0
2016-09-30T02:08:29.669Z,0
2016-09-30T02:09:14.668Z,0
2016-09-30T02:10:14.634Z,0
2016-09-30T02:11:14.914Z,0
2016-09-30T02:12:14.688Z,0
2016-09-30T02:13:14.720Z,0
2016-09-30T02:15:14.765Z,0
2016-09-30T02:16:29.717Z,0
2016-09-30T02:17:14.813Z,0
2016-09-30T02:18:14.836Z,0
2016-09-30T02:19:15.105Z,0
2016-09-30T02:20:14.893Z,0
2016-09-30T02:22:14.943Z,0
2016-09-30T02:24:29.963Z,0
2016-09-30T02:25:15.017Z,0
2016-09-30T02:26:15.084Z,0
2016-09-30T02:27:15.069Z,0
2016-09-30T02:28:15.091Z,0
2016-09-30T02:29:15.115Z,0
2016-09-30T02:30:15.137Z,0
2016-09-30T02:31:15.161Z,0
2016-09-30T02:32:15.184Z,0
2016-09-30T02:33:15.515Z,0
2016-09-30T02:34:15.236Z,0
2016-09-30T02:36:30.221Z,0
2016-09-30T02:37:15.306Z,0
2016-09-30T02:38:15.387Z,0
2016-09-30T02:39:15.358Z,0
2016-09-30T02:40:30.305Z,0
2016-09-30T02:41:15.411Z,0
2016-09-30T02:42:15.439Z,0
2016-09-30T02:43:15.458Z,0
2016-09-30T02:44:15.779Z,0
2016-09-30T02:45:15.504Z,0
2016-09-30T02:46:15.540Z,0
2016-09-30T02:47:15.802Z,0
2016-09-30T02:48:30.510Z,0
2016-09-30T02:49:15.604Z,0
2016-09-30T02:50:15.932Z,0
2016-09-30T02:51:15.651Z,0
2016-09-30T02:52:15.678Z,0
2016-09-30T02:53:30.627Z,0
2016-09-30T02:54:30.654Z,0
2016-09-30T02:55:31.685Z,0
2016-09-30T02:56:15.788Z,0
2016-09-30T02:57:15.799Z,0
2016-09-30T02:58:15.843Z,0
2016-09-30T02:59:15.857Z,0
2016-09-30T03:00:15.883Z,0
2016-09-30T03:01:16.151Z,0
2016-09-30T03:02:15.927Z,0
2016-09-30T03:03:16.252Z,0
2016-09-30T03:04:15.978Z,0
2016-09-30T03:05:16.006Z,0
2016-09-30T03:06:16.276Z,0
2016-09-30T03:08:16.075Z,0
2016-09-30T03:09:31.027Z,0
2016-09-30T03:10:16.132Z,0
2016-09-30T03:11:16.407Z,0
2016-09-30T03:12:16.178Z,0
2016-09-30T03:13:16.198Z,0
2016-09-30T03:15:16.247Z,0
2016-09-30T03:16:16.337Z,0
2016-09-30T03:17:16.297Z,0
2016-09-30T03:18:16.321Z,0
2016-09-30T03:19:16.355Z,0
2016-09-30T03:20:16.388Z,0
2016-09-30T03:21:16.400Z,0
2016-09-30T03:22:16.420Z,0
2016-09-30T03:23:16.446Z,0
2016-09-30T03:24:16.722Z,0
2016-09-30T03:25:16.496Z,0
2016-09-30T03:26:16.524Z,0
2016-09-30T03:27:31.479Z,0
2016-09-30T03:28:16.627Z,0
2016-09-30T03:29:16.603Z,0
2016-09-30T03:30:16.619Z,0
2016-09-30T03:31:16.655Z,0
2016-09-30T03:32:16.684Z,0
2016-09-30T03:33:16.697Z,0
2016-09-30T03:34:16.724Z,0
2016-09-30T03:35:16.753Z,0
2016-09-30T03:36:31.700Z,0
2016-09-30T03:37:16.800Z,0
2016-09-30T03:38:16.821Z,0
2016-09-30T03:39:16.896Z,0
2016-09-30T03:40:16.873Z,0
2016-09-30T03:41:16.946Z,0
2016-09-30T03:42:16.965Z,0
2016-09-30T03:43:31.872Z,0
2016-09-30T03:44:17.017Z,0
2016-09-30T03:45:17.005Z,0
2016-09-30T03:46:17.019Z,0
2016-09-30T03:47:17.043Z,0
2016-09-30T03:48:17.073Z,0
2016-09-30T03:49:17.095Z,0
2016-09-30T03:50:17.118Z,0
2016-09-30T03:51:17.142Z,0
2016-09-30T03:52:17.168Z,0
2016-09-30T03:53:17.187Z,0
2016-09-30T03:54:17.223Z,0
2016-09-30T03:55:17.238Z,0
2016-09-30T03:56:17.270Z,0
2016-09-30T03:57:17.288Z,0
2016-09-30T03:58:17.359Z,0
2016-09-30T03:59:32.275Z,0
2016-09-30T04:00:17.356Z,0
2016-09-30T04:01:17.389Z,0
2016-09-30T04:02:17.419Z,0
2016-09-30T04:03:17.441Z,0
2016-09-30T04:04:17.466Z,0
2016-09-30T04:05:17.536Z,0
2016-09-30T04:06:17.519Z,0
2016-09-30T04:07:32.467Z,0
2016-09-30T04:08:32.489Z,0
2016-09-30T04:09:17.608Z,0
2016-09-30T04:10:17.613Z,0
2016-09-30T04:11:17.637Z,0
2016-09-30T04:13:17.691Z,0
2016-09-30T04:14:17.715Z,0
2016-09-30T04:15:32.661Z,0
2016-09-30T04:16:17.760Z,0
2016-09-30T04:17:17.793Z,0
2016-09-30T04:18:17.806Z,0
2016-09-30T04:19:18.085Z,0
2016-09-30T04:20:17.863Z,0
2016-09-30T04:21:17.880Z,0
2016-09-30T04:22:17.914Z,0
2016-09-30T04:23:17.937Z,0
2016-09-30T04:24:17.967Z,0
2016-09-30T04:25:17.981Z,0
2016-09-30T04:26:18.007Z,0
2016-09-30T04:27:18.033Z,0
2016-09-30T04:28:18.063Z,0
2016-09-30T04:29:18.084Z,0
2016-09-30T04:31:18.182Z,0
2016-09-30T04:32:18.155Z,0
2016-09-30T04:33:18.190Z,0
2016-09-30T04:34:18.205Z,0
2016-09-30T04:35:18.537Z,0
2016-09-30T04:36:18.253Z,0
2016-09-30T04:37:18.284Z,0
2016-09-30T04:38:18.312Z,0
2016-09-30T04:39:18.329Z,0
2016-09-30T04:40:18.353Z,0
2016-09-30T04:41:18.380Z,4
2016-09-30T04:42:18.405Z,4
2016-09-30T04:43:18.740Z,0
2016-09-30T04:44:18.454Z,0
2016-09-30T04:45:18.485Z,4
2016-09-30T04:46:18.507Z,4
2016-09-30T04:47:18.525Z,4
2016-09-30T04:48:18.555Z,4
2016-09-30T04:49:18.826Z,4
2016-09-30T04:50:18.611Z,4
2016-09-30T04:51:18.642Z,4
2016-09-30T04:52:33.632Z,8
2016-09-30T04:53:18.681Z,8
2016-09-30T04:54:19.008Z,8
2016-09-30T04:55:18.737Z,12
2016-09-30T04:56:18.752Z,16
2016-09-30T04:57:18.780Z,16
2016-09-30T04:58:18.796Z,20
2016-09-30T04:59:18.831Z,20
2016-09-30T05:00:18.844Z,24
2016-09-30T05:01:18.896Z,28
2016-09-30T05:02:33.834Z,40
2016-09-30T05:03:18.924Z,48
2016-09-30T05:04:18.948Z,48
2016-09-30T05:05:18.977Z,56
2016-09-30T05:06:19.010Z,64
2016-09-30T05:07:19.026Z,72
2016-09-30T05:08:19.052Z,80
2016-09-30T05:09:19.072Z,88
2016-09-30T05:10:19.352Z,92
2016-09-30T05:11:19.373Z,92
2016-09-30T05:12:19.147Z,92
2016-09-30T05:13:19.170Z,92
2016-09-30T05:14:19.244Z,92
2016-09-30T05:15:19.225Z,100
2016-09-30T05:16:19.249Z,108
2016-09-30T05:17:19.273Z,112
2016-09-30T05:18:34.224Z,112
2016-09-30T05:19:19.319Z,116
2016-09-30T05:20:19.594Z,124
2016-09-30T05:21:34.305Z,136
2016-09-30T05:22:19.396Z,140
2016-09-30T05:23:19.430Z,140
2016-09-30T05:24:19.446Z,144
2016-09-30T05:25:19.520Z,144
2016-09-30T05:26:19.494Z,152
2016-09-30T05:27:19.516Z,156
2016-09-30T05:28:19.544Z,160
2016-09-30T05:29:19.815Z,168
2016-09-30T05:30:19.604Z,180
2016-09-30T05:31:19.614Z,196
2016-09-30T05:32:19.659Z,208
2016-09-30T05:33:34.589Z,232
2016-09-30T05:34:34.612Z,244
2016-09-30T05:35:34.638Z,260
2016-09-30T05:36:19.759Z,272
2016-09-30T05:37:19.819Z,296
2016-09-30T05:38:19.795Z,308
2016-09-30T05:39:19.813Z,324
2016-09-30T05:40:19.845Z,348
2016-09-30T05:41:19.866Z,376
2016-09-30T05:42:20.135Z,392
2016-09-30T05:43:19.914Z,392
2016-09-30T05:44:19.938Z,388
2016-09-30T05:45:19.967Z,388
2016-09-30T05:46:20.338Z,384
2016-09-30T05:47:20.007Z,388
2016-09-30T05:48:20.045Z,388
2016-09-30T05:49:34.999Z,400
2016-09-30T05:50:35.013Z,408
2016-09-30T05:51:20.115Z,392
2016-09-30T05:53:20.409Z,380
2016-09-30T05:54:20.191Z,396
2016-09-30T05:56:35.165Z,508
2016-09-30T05:57:20.255Z,532
2016-09-30T05:58:20.291Z,552
2016-09-30T06:00:20.334Z,544
2016-09-30T06:01:20.365Z,532
2016-09-30T06:02:35.308Z,520
2016-09-30T06:03:20.404Z,524
2016-09-30T06:04:20.434Z,520
2016-09-30T06:05:35.388Z,556
2016-09-30T06:06:35.405Z,576
2016-09-30T06:08:20.542Z,616
2016-09-30T06:09:20.871Z,656
2016-09-30T06:10:20.582Z,688
2016-09-30T06:11:20.605Z,680
2016-09-30T06:13:20.660Z,644
2016-09-30T06:14:20.680Z,648
2016-09-30T06:15:20.705Z,672
2016-09-30T06:16:20.734Z,712
2016-09-30T06:17:20.759Z,716
2016-09-30T06:18:20.795Z,720
2016-09-30T06:19:20.816Z,732
2016-09-30T06:20:20.835Z,740
2016-09-30T06:21:20.878Z,732
2016-09-30T06:22:20.877Z,732
2016-09-30T06:23:20.902Z,764
2016-09-30T06:24:20.929Z,760
2016-09-30T06:25:20.953Z,760
2016-09-30T06:27:21.014Z,808
2016-09-30T06:28:21.031Z,908
2016-09-30T06:29:21.051Z,1024
2016-09-30T06:30:21.087Z,1152
2016-09-30T06:31:21.103Z,1208
2016-09-30T06:32:21.124Z,1172
2016-09-30T06:33:21.150Z,1040
2016-09-30T06:34:21.175Z,944
2016-09-30T06:35:21.200Z,924
2016-09-30T06:36:21.229Z,976
2016-09-30T06:37:36.188Z,1152
2016-09-30T06:38:21.275Z,1336
2016-09-30T06:39:21.299Z,1584
2016-09-30T06:40:36.262Z,1904
2016-09-30T06:41:21.355Z,2048
2016-09-30T06:42:21.380Z,2276
2016-09-30T06:43:21.406Z,2492
2016-09-30T06:44:21.434Z,2504
2016-09-30T06:45:21.453Z,2280
2016-09-30T06:46:21.485Z,2204
2016-09-30T06:47:21.497Z,2208
2016-09-30T06:48:36.452Z,2156
2016-09-30T06:49:36.475Z,2164
2016-09-30T06:50:21.576Z,2264
2016-09-30T06:51:21.601Z,2432
2016-09-30T06:53:36.582Z,2492
2016-09-30T06:54:21.693Z,2392
2016-09-30T06:55:36.619Z,2296
2016-09-30T06:57:21.756Z,2164
2016-09-30T06:58:21.778Z,2116
2016-09-30T06:59:21.802Z,2136
2016-09-30T07:00:22.135Z,2152
2016-09-30T07:01:22.050Z,2136
2016-09-30T07:02:21.869Z,2108
2016-09-30T07:04:36.849Z,1904
2016-09-30T07:05:36.873Z,1940
2016-09-30T07:06:21.969Z,2020
2016-09-30T07:07:22.248Z,2184
2016-09-30T07:09:36.967Z,2420
2016-09-30T07:11:22.097Z,2292
2016-09-30T07:12:22.119Z,2108
2016-09-30T07:13:22.166Z,1984
2016-09-30T07:14:22.166Z,1908
2016-09-30T07:15:22.218Z,1904
2016-09-30T07:16:22.518Z,1992
2016-09-30T07:17:22.244Z,2056
2016-09-30T07:18:22.270Z,2124
2016-09-30T07:19:22.298Z,2284
2016-09-30T07:20:22.328Z,2588
2016-09-30T07:21:22.351Z,2940
2016-09-30T07:22:22.371Z,3412
2016-09-30T07:23:22.397Z,3704
2016-09-30T07:24:37.339Z,3036
2016-09-30T07:25:37.371Z,2792
2016-09-30T07:26:22.705Z,2688
2016-09-30T07:27:22.500Z,2580
2016-09-30T07:28:22.530Z,2544
2016-09-30T07:30:22.594Z,2516
2016-09-30T07:31:23.018Z,2520
2016-09-30T07:32:22.622Z,2408
2016-09-30T07:34:22.669Z,2164
2016-09-30T07:35:37.620Z,2172
2016-09-30T07:36:22.724Z,2164
2016-09-30T07:37:37.672Z,2064
2016-09-30T07:38:22.771Z,2032
2016-09-30T07:39:22.793Z,2036
2016-09-30T07:40:37.746Z,2132
2016-09-30T07:41:23.107Z,2216
2016-09-30T07:42:22.873Z,2316
2016-09-30T07:43:23.094Z,2424
2016-09-30T07:44:22.922Z,2416
2016-09-30T07:45:22.950Z,2384
2016-09-30T07:46:22.970Z,2404
2016-09-30T07:47:22.993Z,2572
2016-09-30T07:48:23.027Z,2728
2016-09-30T07:49:23.050Z,2756
2016-09-30T07:50:23.076Z,2816
2016-09-30T07:52:38.048Z,2932
2016-09-30T07:53:23.150Z,2824
2016-09-30T07:54:23.175Z,2648
2016-09-30T07:55:23.195Z,2684
2016-09-30T07:56:23.223Z,2772
2016-09-30T07:57:23.249Z,2692
2016-09-30T07:59:23.301Z,2740
2016-09-30T08:01:23.350Z,2612
2016-09-30T08:02:23.373Z,2560
2016-09-30T08:03:23.421Z,2728
2016-09-30T08:04:23.728Z,3028
2016-09-30T08:05:23.447Z,3264
2016-09-30T08:07:23.494Z,3424
2016-09-30T08:08:23.525Z,3572
2016-09-30T08:09:38.471Z,3740
2016-09-30T08:10:23.571Z,3776
2016-09-30T08:11:23.602Z,3692
2016-09-30T08:12:38.541Z,3560
2016-09-30T08:13:23.647Z,3464
2016-09-30T08:14:23.682Z,3408
2016-09-30T08:15:24.107Z,3480
2016-09-30T08:16:23.732Z,3656
2016-09-30T08:18:23.775Z,4024
2016-09-30T08:19:23.802Z,4016
2016-09-30T08:20:23.821Z,3740
2016-09-30T08:21:23.851Z,3636
2016-09-30T08:22:38.799Z,3844
2016-09-30T08:23:23.893Z,3856
2016-09-30T08:24:24.227Z,3644
2016-09-30T08:25:24.105Z,3556
2016-09-30T08:27:23.993Z,4200
2016-09-30T08:28:38.955Z,4816
2016-09-30T08:29:24.053Z,4816
2016-09-30T08:30:24.082Z,5536
2016-09-30T08:31:24.098Z,6364
2016-09-30T08:32:24.128Z,7072
2016-09-30T08:33:24.399Z,7444
2016-09-30T08:34:24.180Z,7572
2016-09-30T08:35:24.202Z,7996
2016-09-30T08:36:24.223Z,8824
2016-09-30T08:37:24.269Z,9328
2016-09-30T08:38:24.273Z,8940
2016-09-30T08:39:39.243Z,8756
2016-09-30T08:40:24.329Z,8484
2016-09-30T08:41:24.347Z,7776
2016-09-30T08:42:24.375Z,6712
2016-09-30T08:44:39.346Z,5852
2016-09-30T08:45:39.487Z,6356
2016-09-30T08:46:24.482Z,6864
2016-09-30T08:47:24.512Z,7780
2016-09-30T08:48:24.540Z,8464
2016-09-30T08:49:24.559Z,8956
2016-09-30T08:50:24.592Z,9248
2016-09-30T08:51:24.612Z,9876
2016-09-30T08:52:24.637Z,9568
2016-09-30T08:54:24.686Z,8708
2016-09-30T08:55:39.635Z,8980
2016-09-30T08:56:24.735Z,9532
2016-09-30T08:57:24.772Z,11064
2016-09-30T08:58:24.795Z,10376
2016-09-30T08:59:25.079Z,10556
2016-09-30T09:00:39.774Z,10908
2016-09-30T09:01:24.864Z,11084
2016-09-30T09:02:24.894Z,11448
2016-09-30T09:03:24.925Z,11948
2016-09-30T09:04:24.946Z,12576
2016-09-30T09:05:24.974Z,13160
2016-09-30T09:06:24.994Z,13644
2016-09-30T09:07:25.022Z,15544
2016-09-30T09:08:25.056Z,13912
2016-09-30T09:09:25.080Z,15292
2016-09-30T09:10:40.028Z,15884
2016-09-30T09:11:25.128Z,17376
2016-09-30T09:12:40.080Z,19104
2016-09-30T09:13:25.206Z,20096
2016-09-30T09:14:25.212Z,17984
2016-09-30T09:15:40.165Z,13764
2016-09-30T09:16:25.266Z,12504
2016-09-30T09:17:25.291Z,12068
2016-09-30T09:18:25.318Z,12752
2016-09-30T09:19:25.352Z,21696
2016-09-30T09:20:25.374Z,19584
2016-09-30T09:21:25.392Z,14056
2016-09-30T09:22:25.422Z,14356
2016-09-30T09:23:40.382Z,13668
2016-09-30T09:24:40.410Z,13272
2016-09-30T09:25:25.512Z,13576
2016-09-30T09:26:25.543Z,23584
2016-09-30T09:27:25.567Z,24096
2016-09-30T09:28:25.586Z,13048
2016-09-30T09:29:25.720Z,12056
2016-09-30T09:30:40.568Z,16692
2016-09-30T09:31:25.678Z,14132
2016-09-30T09:32:40.630Z,10880
2016-09-30T09:33:25.749Z,10024
2016-09-30T09:34:25.766Z,9840
2016-09-30T09:35:25.784Z,14140
2016-09-30T09:36:25.811Z,8876
2016-09-30T09:37:25.847Z,8872
2016-09-30T09:38:26.501Z,9476
2016-09-30T09:39:25.902Z,9716
2016-09-30T09:40:25.936Z,9572
2016-09-30T09:41:25.953Z,9172
2016-09-30T09:42:25.999Z,9684
2016-09-30T09:43:26.006Z,13356
2016-09-30T09:44:40.962Z,13948
2016-09-30T09:45:40.993Z,8876
2016-09-30T09:46:26.412Z,8196
2016-09-30T09:47:41.041Z,6928
2016-09-30T09:48:26.146Z,6332
2016-09-30T09:49:26.183Z,5884
2016-09-30T09:50:26.206Z,9904
2016-09-30T09:52:26.264Z,6328
2016-09-30T09:53:26.284Z,6416
2016-09-30T09:54:26.317Z,6824
2016-09-30T09:55:26.343Z,7656
2016-09-30T09:56:26.392Z,8428
2016-09-30T09:57:26.394Z,7460
2016-09-30T09:58:26.424Z,7952
2016-09-30T10:00:26.483Z,8104
2016-09-30T10:01:26.510Z,8604
2016-09-30T10:02:26.541Z,8020
2016-09-30T10:03:41.486Z,7668
2016-09-30T10:04:26.600Z,7692
2016-09-30T10:05:26.626Z,7680
2016-09-30T10:06:26.951Z,7568
2016-09-30T10:07:26.676Z,8144
2016-09-30T10:08:26.702Z,8524
2016-09-30T10:09:26.730Z,15456
2016-09-30T10:10:26.752Z,8504
2016-09-30T10:11:41.712Z,7836
2016-09-30T10:12:26.817Z,7876
2016-09-30T10:13:26.842Z,7800
2016-09-30T10:15:27.148Z,6548
2016-09-30T10:16:41.849Z,6200
2016-09-30T10:17:26.952Z,6568
2016-09-30T10:18:26.979Z,6404
2016-09-30T10:19:41.924Z,13700
2016-09-30T10:20:27.030Z,7644
2016-09-30T10:21:27.057Z,8208
2016-09-30T10:22:27.090Z,8508
2016-09-30T10:23:27.120Z,8012
2016-09-30T10:24:27.140Z,7768
2016-09-30T10:25:27.172Z,7516
2016-09-30T10:26:27.198Z,7264
2016-09-30T10:27:27.219Z,8256
2016-09-30T10:28:42.176Z,7704
2016-09-30T10:29:27.273Z,9172
2016-09-30T10:30:27.304Z,8152
2016-09-30T10:31:27.631Z,9780
2016-09-30T10:32:27.363Z,7532
2016-09-30T10:33:27.384Z,10240
2016-09-30T10:34:27.428Z,9464
2016-09-30T10:35:42.363Z,7392
2016-09-30T10:36:27.469Z,6540
2016-09-30T10:37:27.497Z,6104
2016-09-30T10:38:27.520Z,5628
2016-09-30T10:39:27.545Z,5224
2016-09-30T10:40:27.584Z,4936
2016-09-30T10:41:27.608Z,4976
2016-09-30T10:42:27.632Z,5184
2016-09-30T10:43:27.959Z,5192
2016-09-30T10:44:27.681Z,5396
2016-09-30T10:45:28.017Z,5988
2016-09-30T10:46:27.737Z,7192
2016-09-30T10:47:42.689Z,6044
2016-09-30T10:48:27.788Z,6100
2016-09-30T10:49:27.819Z,7316
2016-09-30T10:50:42.776Z,7316
2016-09-30T10:51:27.877Z,6616
2016-09-30T10:52:27.900Z,5720
2016-09-30T10:53:28.049Z,5552
2016-09-30T10:54:27.959Z,5264
2016-09-30T10:55:27.980Z,6012
2016-09-30T10:57:28.042Z,6360
2016-09-30T10:58:28.064Z,7012
2016-09-30T10:59:28.105Z,5888
2016-09-30T11:00:28.133Z,5804
2016-09-30T11:01:28.149Z,5528
2016-09-30T11:02:28.171Z,5120
2016-09-30T11:03:28.201Z,4728
2016-09-30T11:04:28.226Z,4572
2016-09-30T11:05:28.252Z,4416
2016-09-30T11:06:28.576Z,4348
2016-09-30T11:07:28.300Z,4428
2016-09-30T11:08:28.335Z,4576
2016-09-30T11:10:28.691Z,5236
2016-09-30T11:11:28.414Z,5456
2016-09-30T11:12:28.443Z,5288
2016-09-30T11:13:43.398Z,4916
2016-09-30T11:14:28.490Z,4624
2016-09-30T11:15:28.519Z,4376
2016-09-30T11:16:28.546Z,4320
2016-09-30T11:17:43.504Z,4136
2016-09-30T11:18:28.603Z,4100
2016-09-30T11:19:43.556Z,4132
2016-09-30T11:20:28.907Z,4124
2016-09-30T11:21:28.689Z,4228
2016-09-30T11:22:43.633Z,5848
2016-09-30T11:23:28.837Z,4912
2016-09-30T11:24:28.769Z,5136
2016-09-30T11:25:28.794Z,6724
2016-09-30T11:26:28.815Z,6924
2016-09-30T11:28:28.873Z,7300
2016-09-30T11:29:28.909Z,7116
2016-09-30T11:30:28.917Z,6856
2016-09-30T11:31:28.954Z,6340
2016-09-30T11:32:43.905Z,5532
2016-09-30T11:33:29.014Z,6496
2016-09-30T11:34:43.953Z,6996
2016-09-30T11:35:29.048Z,6916
2016-09-30T11:37:44.033Z,6852
2016-09-30T11:38:44.058Z,5332
2016-09-30T11:39:29.459Z,5424
2016-09-30T11:40:29.200Z,5208
2016-09-30T11:41:29.213Z,6780
2016-09-30T11:42:29.255Z,6684
2016-09-30T11:43:29.276Z,6708
2016-09-30T11:44:29.298Z,6672
2016-09-30T11:45:29.323Z,6780
2016-09-30T11:46:29.351Z,6904
2016-09-30T11:48:29.404Z,6168
2016-09-30T11:49:44.366Z,6836
2016-09-30T11:50:29.461Z,6944
2016-09-30T11:51:29.486Z,6916
2016-09-30T11:52:29.513Z,6952
2016-09-30T11:53:44.462Z,7184
2016-09-30T11:54:44.499Z,5728
2016-09-30T11:55:29.587Z,7408
2016-09-30T11:56:29.620Z,7932
2016-09-30T11:57:29.648Z,8180
2016-09-30T11:58:29.673Z,6512
2016-09-30T11:59:29.714Z,7892
2016-09-30T12:00:29.732Z,7508
2016-09-30T12:01:29.758Z,7184
2016-09-30T12:02:29.791Z,6484
2016-09-30T12:03:29.814Z,7284
2016-09-30T12:04:29.840Z,7304
2016-09-30T12:05:29.883Z,7508
2016-09-30T12:06:29.894Z,7540
2016-09-30T12:07:29.925Z,6728
2016-09-30T12:08:29.951Z,6460
2016-09-30T12:11:44.947Z,7332
2016-09-30T12:12:30.051Z,7552
2016-09-30T12:13:30.090Z,6996
2016-09-30T12:14:30.108Z,7248
2016-09-30T12:15:30.140Z,7792
2016-09-30T12:16:30.168Z,7676
2016-09-30T12:18:30.225Z,7812
2016-09-30T12:19:30.257Z,7404
2016-09-30T12:20:30.279Z,5364
2016-09-30T12:21:30.298Z,6056
2016-09-30T12:22:45.258Z,5836
2016-09-30T12:23:30.364Z,6604
2016-09-30T12:24:30.382Z,7548
2016-09-30T12:26:30.437Z,7728
2016-09-30T12:27:30.474Z,7088
2016-09-30T12:28:30.496Z,7452
2016-09-30T12:29:30.520Z,7580
2016-09-30T12:30:30.808Z,7636
2016-09-30T12:31:30.577Z,7720
2016-09-30T12:32:30.609Z,7568
2016-09-30T12:33:30.639Z,7564
2016-09-30T12:34:30.669Z,7904
2016-09-30T12:35:30.688Z,8052
2016-09-30T12:37:45.671Z,8008
2016-09-30T12:38:30.769Z,8116
2016-09-30T12:39:30.797Z,8160
2016-09-30T12:40:30.846Z,8452
2016-09-30T12:41:30.854Z,8260
2016-09-30T12:42:45.805Z,8320
2016-09-30T12:43:30.908Z,8280
2016-09-30T12:44:30.934Z,7912
2016-09-30T12:45:30.961Z,7528
2016-09-30T12:46:30.999Z,7916
2016-09-30T12:47:31.020Z,7144
2016-09-30T12:48:31.857Z,5792
2016-09-30T12:49:46.005Z,5460
2016-09-30T12:50:31.107Z,5420
2016-09-30T12:51:46.059Z,7080
2016-09-30T12:52:31.423Z,5608
2016-09-30T12:53:31.190Z,5600
2016-09-30T12:54:31.512Z,5836
2016-09-30T12:55:31.242Z,5772
2016-09-30T12:56:31.269Z,5536
2016-09-30T12:57:46.226Z,5464
2016-09-30T12:58:31.328Z,5260
2016-09-30T13:00:46.301Z,4736
2016-09-30T13:01:31.418Z,4844
2016-09-30T13:02:31.436Z,5036
2016-09-30T13:03:31.462Z,4704
2016-09-30T13:04:31.483Z,5612
2016-09-30T13:05:31.521Z,6256
2016-09-30T13:06:31.545Z,5348
2016-09-30T13:07:31.573Z,5004
2016-09-30T13:08:31.604Z,4392
2016-09-30T13:09:31.632Z,4212
2016-09-30T13:10:31.907Z,3680
2016-09-30T13:11:31.679Z,3356
2016-09-30T13:12:46.636Z,3288
2016-09-30T13:14:31.771Z,4108
2016-09-30T13:15:31.797Z,4672
2016-09-30T13:16:31.840Z,5452
2016-09-30T13:17:31.853Z,5736
2016-09-30T13:18:31.875Z,5496
2016-09-30T13:20:31.936Z,5004
2016-09-30T13:21:31.961Z,4616
2016-09-30T13:22:32.199Z,4260
2016-09-30T13:23:32.014Z,3912
2016-09-30T13:24:32.457Z,3808
2016-09-30T13:25:32.077Z,3564
2016-09-30T13:26:32.099Z,3600
2016-09-30T13:27:32.125Z,3696
2016-09-30T13:28:32.150Z,3516
2016-09-30T13:29:47.098Z,3340
2016-09-30T13:30:32.204Z,3404
2016-09-30T13:31:32.224Z,3320
2016-09-30T13:32:32.259Z,2936
2016-09-30T13:33:32.285Z,2604
2016-09-30T13:34:32.313Z,1872
2016-09-30T13:35:32.892Z,1288
2016-09-30T13:36:32.362Z,1172
2016-09-30T13:37:32.399Z,1252
2016-09-30T13:38:32.423Z,1360
2016-09-30T13:39:32.452Z,1584
2016-09-30T13:40:47.405Z,2032
2016-09-30T13:41:32.505Z,2200
2016-09-30T13:42:32.535Z,2112
2016-09-30T13:44:32.586Z,1904
2016-09-30T13:45:47.536Z,1768
2016-09-30T13:46:32.641Z,1708
2016-09-30T13:47:32.660Z,1708
2016-09-30T13:49:32.733Z,1992
2016-09-30T13:51:32.780Z,2500
2016-09-30T13:52:32.799Z,2588
2016-09-30T13:53:32.828Z,2576
2016-09-30T13:54:32.857Z,2352
2016-09-30T13:56:32.902Z,2432
2016-09-30T13:57:32.929Z,3532
2016-09-30T13:58:47.885Z,3720
2016-09-30T13:59:32.990Z,3984
2016-09-30T14:00:47.933Z,4588
2016-09-30T14:02:33.064Z,5112
2016-09-30T14:04:33.120Z,4984
2016-09-30T14:05:33.162Z,4844
2016-09-30T14:06:33.177Z,4640
2016-09-30T14:07:33.199Z,4324
2016-09-30T14:08:33.377Z,4008
2016-09-30T14:09:33.252Z,3756
2016-09-30T14:10:33.285Z,3492
2016-09-30T14:11:33.313Z,3212
2016-09-30T14:12:33.543Z,3036
2016-09-30T14:13:33.374Z,2880
2016-09-30T14:15:33.415Z,2476
2016-09-30T14:16:33.447Z,2292
2016-09-30T14:17:33.466Z,2192
2016-09-30T14:19:33.528Z,2052
2016-09-30T14:20:33.555Z,2064
2016-09-30T14:21:33.576Z,2160
2016-09-30T14:22:33.606Z,2312
2016-09-30T14:23:33.629Z,2332
2016-09-30T14:24:33.650Z,2204
2016-09-30T14:25:48.611Z,1848
2016-09-30T14:26:33.713Z,1632
2016-09-30T14:27:33.743Z,1392
2016-09-30T14:28:33.763Z,1292
2016-09-30T14:29:48.717Z,1288
2016-09-30T14:30:33.814Z,1348
2016-09-30T14:31:33.841Z,1452
2016-09-30T14:32:48.787Z,1636
2016-09-30T14:33:33.894Z,1660
2016-09-30T14:34:33.919Z,1524
2016-09-30T14:35:33.949Z,1304
2016-09-30T14:36:33.979Z,1196
2016-09-30T14:37:33.999Z,1192
2016-09-30T14:39:34.048Z,1168
2016-09-30T14:40:49.010Z,1216
2016-09-30T14:42:34.132Z,1300
2016-09-30T14:43:34.170Z,1380
2016-09-30T14:44:34.184Z,1432
2016-09-30T14:45:49.137Z,1468
2016-09-30T14:47:49.189Z,1376
2016-09-30T14:48:49.216Z,1372
2016-09-30T14:49:34.331Z,1412
2016-09-30T14:50:34.340Z,1548
2016-09-30T14:51:34.375Z,1704
2016-09-30T14:52:34.421Z,1776